sensor_id;sensor_type;location;lat;lon;timestamp;pressure;altitude;pressure_sealevel;temperature;humidity
75767;BME280;64378;55.596;13.014;2023-06-14T00:01:48;102117.34;;;23.50;34.18
75767;BME280;64378;55.596;13.014;2023-06-14T00:04:14;102112.94;;;23.49;34.17
75767;BME280;64378;55.596;13.014;2023-06-14T00:06:42;102119.25;;;23.49;34.12
75767;BME280;64378;55.596;13.014;2023-06-14T00:09:07;102116.78;;;23.48;34.24
75767;BME280;64378;55.596;13.014;2023-06-14T00:11:33;102116.78;;;23.48;34.29
75767;BME280;64378;55.596;13.014;2023-06-14T00:13:58;102122.50;;;23.46;34.31
75767;BME280;64378;55.596;13.014;2023-06-14T00:16:24;102119.75;;;23.46;34.44
75767;BME280;64378;55.596;13.014;2023-06-14T00:18:49;102128.28;;;23.45;34.43
75767;BME280;64378;55.596;13.014;2023-06-14T00:21:16;102123.88;;;23.44;34.32
75767;BME280;64378;55.596;13.014;2023-06-14T00:23:41;102123.06;;;23.43;34.32
75767;BME280;64378;55.596;13.014;2023-06-14T00:26:07;102123.88;;;23.44;34.48
75767;BME280;64378;55.596;13.014;2023-06-14T00:28:32;102124.13;;;23.42;34.35
75767;BME280;64378;55.596;13.014;2023-06-14T00:30:57;102118.63;;;23.42;34.69
75767;BME280;64378;55.596;13.014;2023-06-14T00:33:22;102121.63;;;23.41;34.42
75767;BME280;64378;55.596;13.014;2023-06-14T00:35:48;102118.84;;;23.41;34.41
75767;BME280;64378;55.596;13.014;2023-06-14T00:38:13;102119.94;;;23.40;34.60
75767;BME280;64378;55.596;13.014;2023-06-14T00:40:38;102118.28;;;23.39;34.46
75767;BME280;64378;55.596;13.014;2023-06-14T00:43:03;102117.47;;;23.38;34.46
75767;BME280;64378;55.596;13.014;2023-06-14T00:45:29;102119.38;;;23.38;34.54
75767;BME280;64378;55.596;13.014;2023-06-14T00:47:56;102119.63;;;23.36;34.51
75767;BME280;64378;55.596;13.014;2023-06-14T00:50:21;102120.44;;;23.37;34.68
75767;BME280;64378;55.596;13.014;2023-06-14T00:52:48;102121.53;;;23.36;34.70
75767;BME280;64378;55.596;13.014;2023-06-14T00:55:13;102122.63;;;23.35;34.60
75767;BME280;64378;55.596;13.014;2023-06-14T00:57:39;102122.63;;;23.35;34.90
75767;BME280;64378;55.596;13.014;2023-06-14T01:00:05;102120.13;;;23.33;34.72
75767;BME280;64378;55.596;13.014;2023-06-14T01:02:34;102118.47;;;23.32;34.84
75767;BME280;64378;55.596;13.014;2023-06-14T01:04:59;102122.03;;;23.33;34.56
75767;BME280;64378;55.596;13.014;2023-06-14T01:14:51;102121.72;;;23.29;34.60
75767;BME280;64378;55.596;13.014;2023-06-14T01:17:17;102128.31;;;23.28;34.60
75767;BME280;64378;55.596;13.014;2023-06-14T01:19:42;102125.56;;;23.28;34.85
75767;BME280;64378;55.596;13.014;2023-06-14T01:22:09;102128.59;;;23.27;34.67
75767;BME280;64378;55.596;13.014;2023-06-14T01:24:35;102134.91;;;23.27;34.79
75767;BME280;64378;55.596;13.014;2023-06-14T01:27:00;102134.31;;;23.25;34.73
75767;BME280;64378;55.596;13.014;2023-06-14T01:29:27;102131.56;;;23.25;34.78
75767;BME280;64378;55.596;13.014;2023-06-14T01:31:57;102132.66;;;23.24;34.62
75767;BME280;64378;55.596;13.014;2023-06-14T01:34:23;102129.91;;;23.24;34.89
75767;BME280;64378;55.596;13.014;2023-06-14T01:36:48;102126.31;;;23.24;34.68
75767;BME280;64378;55.596;13.014;2023-06-14T01:39:14;102129.31;;;23.22;34.80
75767;BME280;64378;55.596;13.014;2023-06-14T01:41:43;102128.50;;;23.22;34.63
75767;BME280;64378;55.596;13.014;2023-06-14T01:44:09;102125.97;;;23.20;34.79
75767;BME280;64378;55.596;13.014;2023-06-14T01:46:35;102130.66;;;23.20;34.58
75767;BME280;64378;55.596;13.014;2023-06-14T01:49:01;102129.00;;;23.19;34.57
75767;BME280;64378;55.596;13.014;2023-06-14T01:51:27;102131.75;;;23.19;34.80
75767;BME280;64378;55.596;13.014;2023-06-14T01:53:52;102134.50;;;23.19;34.58
75767;BME280;64378;55.596;13.014;2023-06-14T01:56:17;102140.00;;;23.19;34.74
75767;BME280;64378;55.596;13.014;2023-06-14T01:58:43;102141.09;;;23.18;34.71
75767;BME280;64378;55.596;13.014;2023-06-14T02:01:08;102143.03;;;23.17;34.74
75767;BME280;64378;55.596;13.014;2023-06-14T02:03:33;102143.03;;;23.17;34.91
75767;BME280;64378;55.596;13.014;2023-06-14T02:05:59;102146.00;;;23.16;34.77
75767;BME280;64378;55.596;13.014;2023-06-14T02:08:24;102155.13;;;23.16;35.00
75767;BME280;64378;55.596;13.014;2023-06-14T02:10:50;102145.19;;;23.15;34.90
75767;BME280;64378;55.596;13.014;2023-06-14T02:13:15;102144.34;;;23.15;35.01
75767;BME280;64378;55.596;13.014;2023-06-14T02:15:40;102149.03;;;23.14;34.84
75767;BME280;64378;55.596;13.014;2023-06-14T02:18:08;102155.63;;;23.13;34.95
75767;BME280;64378;55.596;13.014;2023-06-14T02:20:34;102148.44;;;23.12;35.08
75767;BME280;64378;55.596;13.014;2023-06-14T02:22:59;102153.97;;;23.12;34.83
75767;BME280;64378;55.596;13.014;2023-06-14T02:25:25;102153.97;;;23.12;34.87
75767;BME280;64378;55.596;13.014;2023-06-14T02:27:52;102142.34;;;23.10;34.76
75767;BME280;64378;55.596;13.014;2023-06-14T02:30:18;102142.34;;;23.10;34.84
75767;BME280;64378;55.596;13.014;2023-06-14T02:32:43;102155.03;;;23.11;34.83
75767;BME280;64378;55.596;13.014;2023-06-14T02:35:08;102158.03;;;23.10;34.94
75767;BME280;64378;55.596;13.014;2023-06-14T02:37:34;102150.84;;;23.09;34.96
75767;BME280;64378;55.596;13.014;2023-06-14T02:40:00;102155.53;;;23.08;35.06
75767;BME280;64378;55.596;13.014;2023-06-14T02:42:25;102153.88;;;23.07;34.82
75767;BME280;64378;55.596;13.014;2023-06-14T02:44:50;102158.53;;;23.07;35.07
75767;BME280;64378;55.596;13.014;2023-06-14T02:47:16;102148.59;;;23.06;34.96
75767;BME280;64378;55.596;13.014;2023-06-14T02:49:41;102150.50;;;23.05;35.13
75767;BME280;64378;55.596;13.014;2023-06-14T02:52:07;102159.84;;;23.04;35.15
75767;BME280;64378;55.596;13.014;2023-06-14T02:54:34;102159.84;;;23.04;35.01
75767;BME280;64378;55.596;13.014;2023-06-14T02:56:59;102151.59;;;23.04;35.01
75767;BME280;64378;55.596;13.014;2023-06-14T02:59:24;102151.59;;;23.04;34.94
75767;BME280;64378;55.596;13.014;2023-06-14T03:01:50;102148.81;;;23.04;34.89
75767;BME280;64378;55.596;13.014;2023-06-14T03:04:15;102152.16;;;23.06;34.97
75767;BME280;64378;55.596;13.014;2023-06-14T03:06:41;102162.13;;;23.07;35.04
75767;BME280;64378;55.596;13.014;2023-06-14T03:09:09;102159.13;;;23.09;34.96
75767;BME280;64378;55.596;13.014;2023-06-14T03:11:34;102157.78;;;23.11;34.79
75767;BME280;64378;55.596;13.014;2023-06-14T03:14:00;102163.88;;;23.13;34.86
75767;BME280;64378;55.596;13.014;2023-06-14T03:16:25;102161.72;;;23.15;34.86
75767;BME280;64378;55.596;13.014;2023-06-14T03:18:54;102167.56;;;23.19;34.74
75767;BME280;64378;55.596;13.014;2023-06-14T03:21:20;102165.13;;;23.22;34.89
75767;BME280;64378;55.596;13.014;2023-06-14T03:23:45;102174.53;;;23.26;34.65
75767;BME280;64378;55.596;13.014;2023-06-14T03:26:11;102173.81;;;23.31;34.71
75767;BME280;64378;55.596;13.014;2023-06-14T03:28:42;102172.19;;;23.35;34.43
75767;BME280;64378;55.596;13.014;2023-06-14T03:31:07;102162.34;;;23.39;34.66
75767;BME280;64378;55.596;13.014;2023-06-14T03:33:33;102172.63;;;23.43;34.61
75767;BME280;64378;55.596;13.014;2023-06-14T03:35:59;102172.94;;;23.47;34.25
75767;BME280;64378;55.596;13.014;2023-06-14T03:38:24;102171.38;;;23.51;34.28
75767;BME280;64378;55.596;13.014;2023-06-14T03:40:50;102177.19;;;23.54;34.25
75767;BME280;64378;55.596;13.014;2023-06-14T03:43:15;102169.78;;;23.55;34.18
75767;BME280;64378;55.596;13.014;2023-06-14T03:45:40;102175.88;;;23.57;34.44
75767;BME280;64378;55.596;13.014;2023-06-14T03:48:06;102172.84;;;23.58;34.35
75767;BME280;64378;55.596;13.014;2023-06-14T03:50:33;102177.28;;;23.59;34.45
75767;BME280;64378;55.596;13.014;2023-06-14T03:52:58;102183.38;;;23.61;34.38
75767;BME280;64378;55.596;13.014;2023-06-14T03:55:23;102185.84;;;23.63;34.29
75767;BME280;64378;55.596;13.014;2023-06-14T03:57:50;102182.88;;;23.64;34.61
75767;BME280;64378;55.596;13.014;2023-06-14T04:00:15;102184.25;;;23.67;34.22
75767;BME280;64378;55.596;13.014;2023-06-14T04:02:41;102182.94;;;23.69;34.21
75767;BME280;64378;55.596;13.014;2023-06-14T04:05:06;102185.16;;;23.72;34.30
75767;BME280;64378;55.596;13.014;2023-06-14T04:07:33;102187.41;;;23.75;34.19
75767;BME280;64378;55.596;13.014;2023-06-14T04:10:05;102183.38;;;23.78;34.05
75767;BME280;64378;55.596;13.014;2023-06-14T04:12:30;102188.38;;;23.81;34.19
75767;BME280;64378;55.596;13.014;2023-06-14T04:14:55;102185.94;;;23.84;33.99
75767;BME280;64378;55.596;13.014;2023-06-14T04:17:21;102193.44;;;23.89;34.21
75767;BME280;64378;55.596;13.014;2023-06-14T04:19:46;102192.09;;;23.91;33.95
75767;BME280;64378;55.596;13.014;2023-06-14T04:22:12;102190.50;;;23.95;33.84
75767;BME280;64378;55.596;13.014;2023-06-14T04:24:37;102187.22;;;23.98;33.76
75767;BME280;64378;55.596;13.014;2023-06-14T04:27:03;102184.78;;;24.02;33.74
75767;BME280;64378;55.596;13.014;2023-06-14T04:29:28;102185.09;;;24.05;33.99
75767;BME280;64378;55.596;13.014;2023-06-14T04:31:54;102182.66;;;24.09;33.94
75767;BME280;64378;55.596;13.014;2023-06-14T04:34:23;102188.50;;;24.12;33.86
75767;BME280;64378;55.596;13.014;2023-06-14T04:36:50;102182.50;;;24.15;33.63
75767;BME280;64378;55.596;13.014;2023-06-14T04:39:21;102188.06;;;24.20;33.94
75767;BME280;64378;55.596;13.014;2023-06-14T04:41:47;102180.94;;;24.24;33.78
75767;BME280;64378;55.596;13.014;2023-06-14T04:44:12;102184.03;;;24.27;33.75
75767;BME280;64378;55.596;13.014;2023-06-14T04:46:38;102195.38;;;24.31;33.38
75767;BME280;64378;55.596;13.014;2023-06-14T04:49:10;102189.34;;;24.34;33.81
75767;BME280;64378;55.596;13.014;2023-06-14T04:51:39;102181.34;;;24.37;33.38
75767;BME280;64378;55.596;13.014;2023-06-14T04:54:05;102188.31;;;24.40;33.66
75767;BME280;64378;55.596;13.014;2023-06-14T04:56:30;102191.38;;;24.43;33.64
75767;BME280;64378;55.596;13.014;2023-06-14T04:58:55;102187.03;;;24.47;33.54
75767;BME280;64378;55.596;13.014;2023-06-14T05:01:21;102189.28;;;24.50;33.32
75767;BME280;64378;55.596;13.014;2023-06-14T05:03:48;102189.59;;;24.54;33.53
75767;BME280;64378;55.596;13.014;2023-06-14T05:06:14;102186.59;;;24.55;33.59
75767;BME280;64378;55.596;13.014;2023-06-14T05:08:39;102186.88;;;24.59;33.49
75767;BME280;64378;55.596;13.014;2023-06-14T05:11:04;102181.66;;;24.62;33.44
75767;BME280;64378;55.596;13.014;2023-06-14T05:13:30;102181.16;;;24.65;33.11
75767;BME280;64378;55.596;13.014;2023-06-14T05:15:57;102181.72;;;24.67;33.13
75767;BME280;64378;55.596;13.014;2023-06-14T05:18:23;102185.91;;;24.70;33.25
75767;BME280;64378;55.596;13.014;2023-06-14T05:20:50;102182.59;;;24.73;33.16
75767;BME280;64378;55.596;13.014;2023-06-14T05:23:15;102187.59;;;24.76;33.03
75767;BME280;64378;55.596;13.014;2023-06-14T05:25:43;102182.66;;;24.78;33.10
75767;BME280;64378;55.596;13.014;2023-06-14T05:28:09;102186.00;;;24.80;33.33
75767;BME280;64378;55.596;13.014;2023-06-14T05:30:34;102192.94;;;24.82;33.33
75767;BME280;64378;55.596;13.014;2023-06-14T05:33:00;102178.59;;;24.85;33.12
75767;BME280;64378;55.596;13.014;2023-06-14T05:35:25;102186.34;;;24.88;33.33
75767;BME280;64378;55.596;13.014;2023-06-14T05:37:51;102177.81;;;24.90;33.40
75767;BME280;64378;55.596;13.014;2023-06-14T05:40:17;102177.31;;;24.93;33.07
75767;BME280;64378;55.596;13.014;2023-06-14T05:42:42;102175.13;;;24.95;33.09
75767;BME280;64378;55.596;13.014;2023-06-14T05:45:08;102180.09;;;24.98;33.05
75767;BME280;64378;55.596;13.014;2023-06-14T05:47:33;102177.06;;;24.99;33.04
75767;BME280;64378;55.596;13.014;2023-06-14T05:49:58;102175.72;;;25.02;33.25
75767;BME280;64378;55.596;13.014;2023-06-14T05:52:23;102173.50;;;25.04;33.29
75767;BME280;64378;55.596;13.014;2023-06-14T05:54:48;102164.97;;;25.05;33.21
75767;BME280;64378;55.596;13.014;2023-06-14T05:57:14;102162.78;;;25.07;32.93
75767;BME280;64378;55.596;13.014;2023-06-14T05:59:40;102163.63;;;25.08;32.86
75767;BME280;64378;55.596;13.014;2023-06-14T06:02:05;102163.09;;;25.11;33.28
75767;BME280;64378;55.596;13.014;2023-06-14T06:04:30;102160.91;;;25.13;32.99
75767;BME280;64378;55.596;13.014;2023-06-14T06:09:21;102166.50;;;25.18;33.30
75767;BME280;64378;55.596;13.014;2023-06-14T06:11:46;102162.66;;;25.19;32.86
75767;BME280;64378;55.596;13.014;2023-06-14T06:14:11;102164.88;;;25.22;32.86
75767;BME280;64378;55.596;13.014;2023-06-14T06:16:36;102181.19;;;25.23;32.98
75767;BME280;64378;55.596;13.014;2023-06-14T06:19:02;102175.38;;;25.25;33.15
75767;BME280;64378;55.596;13.014;2023-06-14T06:21:27;102172.38;;;25.26;33.13
75767;BME280;64378;55.596;13.014;2023-06-14T06:23:52;102168.50;;;25.27;32.82
75767;BME280;64378;55.596;13.014;2023-06-14T06:26:19;102171.56;;;25.30;33.11
75767;BME280;64378;55.596;13.014;2023-06-14T06:28:45;102166.88;;;25.31;32.81
75767;BME280;64378;55.596;13.014;2023-06-14T06:31:10;102169.38;;;25.32;32.80
75767;BME280;64378;55.596;13.014;2023-06-14T06:33:36;102176.56;;;25.33;32.78
75767;BME280;64378;55.596;13.014;2023-06-14T06:36:01;102178.22;;;25.34;32.92
75767;BME280;64378;55.596;13.014;2023-06-14T06:38:27;102183.47;;;25.36;33.13
75767;BME280;64378;55.596;13.014;2023-06-14T06:40:52;102184.03;;;25.38;33.21
75767;BME280;64378;55.596;13.014;2023-06-14T06:43:19;102191.25;;;25.39;32.93
75767;BME280;64378;55.596;13.014;2023-06-14T06:45:44;102184.63;;;25.40;33.06
75767;BME280;64378;55.596;13.014;2023-06-14T06:48:09;102187.13;;;25.41;33.55
75767;BME280;64378;55.596;13.014;2023-06-14T06:50:35;102189.63;;;25.43;32.99
75767;BME280;64378;55.596;13.014;2023-06-14T06:53:00;102184.94;;;25.43;32.62
75767;BME280;64378;55.596;13.014;2023-06-14T06:55:26;102185.75;;;25.44;33.03
75767;BME280;64378;55.596;13.014;2023-06-14T06:57:51;102188.84;;;25.47;32.68
75767;BME280;64378;55.596;13.014;2023-06-14T07:00:17;102186.88;;;25.48;33.00
75767;BME280;64378;55.596;13.014;2023-06-14T07:02:42;102194.91;;;25.49;32.95
75767;BME280;64378;55.596;13.014;2023-06-14T07:05:08;102195.75;;;25.50;33.12
75767;BME280;64378;55.596;13.014;2023-06-14T07:07:33;102199.34;;;25.50;33.09
75767;BME280;64378;55.596;13.014;2023-06-14T07:09:59;102203.53;;;25.53;32.95
75767;BME280;64378;55.596;13.014;2023-06-14T07:12:25;102206.28;;;25.53;32.56
75767;BME280;64378;55.596;13.014;2023-06-14T07:14:50;102201.56;;;25.53;32.83
75767;BME280;64378;55.596;13.014;2023-06-14T07:17:15;102202.13;;;25.55;32.87
75767;BME280;64378;55.596;13.014;2023-06-14T07:19:41;102205.75;;;25.56;32.61
75767;BME280;64378;55.596;13.014;2023-06-14T07:22:06;102201.03;;;25.56;32.71
75767;BME280;64378;55.596;13.014;2023-06-14T07:24:31;102201.91;;;25.57;32.79
75767;BME280;64378;55.596;13.014;2023-06-14T07:26:57;102195.25;;;25.58;32.98
75767;BME280;64378;55.596;13.014;2023-06-14T07:29:22;102201.63;;;25.58;32.75
75767;BME280;64378;55.596;13.014;2023-06-14T07:31:47;102206.03;;;25.59;32.33
75767;BME280;64378;55.596;13.014;2023-06-14T07:34:12;102210.75;;;25.59;32.67
75767;BME280;64378;55.596;13.014;2023-06-14T07:36:38;102211.56;;;25.59;32.63
75767;BME280;64378;55.596;13.014;2023-06-14T07:39:03;102209.38;;;25.61;32.47
75767;BME280;64378;55.596;13.014;2023-06-14T07:41:30;102209.38;;;25.61;32.54
75767;BME280;64378;55.596;13.014;2023-06-14T07:43:56;102212.97;;;25.62;32.45
75767;BME280;64378;55.596;13.014;2023-06-14T07:46:21;102205.50;;;25.62;32.50
75767;BME280;64378;55.596;13.014;2023-06-14T07:48:46;102208.28;;;25.62;32.20
75767;BME280;64378;55.596;13.014;2023-06-14T07:51:11;102197.78;;;25.64;32.23
75767;BME280;64378;55.596;13.014;2023-06-14T07:53:36;102206.91;;;25.65;32.59
75767;BME280;64378;55.596;13.014;2023-06-14T07:56:02;102199.47;;;25.65;32.20
75767;BME280;64378;55.596;13.014;2023-06-14T07:58:27;102196.69;;;25.65;32.19
75767;BME280;64378;55.596;13.014;2023-06-14T08:00:53;102193.94;;;25.65;32.52
75767;BME280;64378;55.596;13.014;2023-06-14T08:03:18;102200.28;;;25.66;32.22
75767;BME280;64378;55.596;13.014;2023-06-14T08:05:43;102197.50;;;25.66;32.23
75767;BME280;64378;55.596;13.014;2023-06-14T08:08:08;102198.34;;;25.66;32.47
75767;BME280;64378;55.596;13.014;2023-06-14T08:10:34;102200.28;;;25.66;32.35
75767;BME280;64378;55.596;13.014;2023-06-14T08:12:59;102193.94;;;25.65;32.39
75767;BME280;64378;55.596;13.014;2023-06-14T08:15:24;102194.75;;;25.66;32.34
75767;BME280;64378;55.596;13.014;2023-06-14T08:17:50;102196.69;;;25.65;32.06
75767;BME280;64378;55.596;13.014;2023-06-14T08:20:16;102194.75;;;25.66;32.45
75767;BME280;64378;55.596;13.014;2023-06-14T08:22:41;102199.47;;;25.65;32.06
75767;BME280;64378;55.596;13.014;2023-06-14T08:25:07;102191.41;;;25.64;32.16
75767;BME280;64378;55.596;13.014;2023-06-14T08:27:32;102203.03;;;25.66;32.20
75767;BME280;64378;55.596;13.014;2023-06-14T08:29:58;102196.69;;;25.65;32.11
75767;BME280;64378;55.596;13.014;2023-06-14T08:32:23;102199.47;;;25.65;32.39
75767;BME280;64378;55.596;13.014;2023-06-14T08:34:49;102186.72;;;25.64;32.05
75767;BME280;64378;55.596;13.014;2023-06-14T08:37:14;102196.13;;;25.63;32.15
75767;BME280;64378;55.596;13.014;2023-06-14T08:39:39;102185.88;;;25.64;32.31
75767;BME280;64378;55.596;13.014;2023-06-14T08:42:05;102188.66;;;25.64;32.36
75767;BME280;64378;55.596;13.014;2023-06-14T08:44:31;102192.50;;;25.63;32.30
75767;BME280;64378;55.596;13.014;2023-06-14T08:46:57;102185.31;;;25.62;32.39
75767;BME280;64378;55.596;13.014;2023-06-14T08:49:24;102188.94;;;25.62;32.57
75767;BME280;64378;55.596;13.014;2023-06-14T08:51:50;102187.25;;;25.61;32.60
75767;BME280;64378;55.596;13.014;2023-06-14T08:54:19;102186.44;;;25.61;32.42
75767;BME280;64378;55.596;13.014;2023-06-14T08:56:45;102189.22;;;25.61;32.31
75767;BME280;64378;55.596;13.014;2023-06-14T08:59:13;102188.34;;;25.60;32.59
75767;BME280;64378;55.596;13.014;2023-06-14T09:01:38;102193.06;;;25.60;32.25
75767;BME280;64378;55.596;13.014;2023-06-14T09:04:04;102186.44;;;25.61;32.66
75767;BME280;64378;55.596;13.014;2023-06-14T09:06:33;102191.13;;;25.60;32.74
75767;BME280;64378;55.596;13.014;2023-06-14T09:08:58;102192.22;;;25.59;32.69
75767;BME280;64378;55.596;13.014;2023-06-14T09:11:23;102177.84;;;25.57;32.31
75767;BME280;64378;55.596;13.014;2023-06-14T09:13:50;102173.16;;;25.58;32.55
75767;BME280;64378;55.596;13.014;2023-06-14T09:16:16;102173.16;;;25.58;32.49
75767;BME280;64378;55.596;13.014;2023-06-14T09:18:42;102173.16;;;25.58;32.33
75767;BME280;64378;55.596;13.014;2023-06-14T09:21:09;102164.84;;;25.58;32.42
75767;BME280;64378;55.596;13.014;2023-06-14T09:23:38;102169.53;;;25.57;32.55
75767;BME280;64378;55.596;13.014;2023-06-14T09:26:17;102168.72;;;25.57;32.62
75767;BME280;64378;55.596;13.014;2023-06-14T09:28:46;102172.31;;;25.57;32.55
75767;BME280;64378;55.596;13.014;2023-06-14T09:31:12;102170.63;;;25.56;32.67
75767;BME280;64378;55.596;13.014;2023-06-14T09:33:37;102172.59;;;25.56;32.67
75767;BME280;64378;55.596;13.014;2023-06-14T09:36:03;102163.44;;;25.55;32.56
75767;BME280;64378;55.596;13.014;2023-06-14T09:38:28;102163.72;;;25.54;32.72
75767;BME280;64378;55.596;13.014;2023-06-14T09:40:56;102168.41;;;25.53;32.68
75767;BME280;64378;55.596;13.014;2023-06-14T09:43:21;102166.72;;;25.52;32.82
75767;BME280;64378;55.596;13.014;2023-06-14T09:45:47;102172.25;;;25.52;32.36
75767;BME280;64378;55.596;13.014;2023-06-14T09:48:13;102172.53;;;25.51;32.66
75767;BME280;64378;55.596;13.014;2023-06-14T09:50:42;102162.59;;;25.50;32.40
75767;BME280;64378;55.596;13.014;2023-06-14T09:53:09;102167.25;;;25.49;32.58
75767;BME280;64378;55.596;13.014;2023-06-14T09:55:36;102165.63;;;25.48;32.26
75767;BME280;64378;55.596;13.014;2023-06-14T09:58:03;102162.88;;;25.48;32.71
75767;BME280;64378;55.596;13.014;2023-06-14T10:00:29;102158.69;;;25.46;32.45
75767;BME280;64378;55.596;13.014;2023-06-14T10:02:57;102161.19;;;25.47;32.68
75767;BME280;64378;55.596;13.014;2023-06-14T10:05:26;102163.66;;;25.44;32.74
75767;BME280;64378;55.596;13.014;2023-06-14T10:07:56;102153.44;;;25.44;32.69
75767;BME280;64378;55.596;13.014;2023-06-14T10:10:24;102160.06;;;25.43;32.67
75767;BME280;64378;55.596;13.014;2023-06-14T10:12:50;102150.91;;;25.43;32.78
75767;BME280;64378;55.596;13.014;2023-06-14T10:15:28;102154.78;;;25.42;32.93
75767;BME280;64378;55.596;13.014;2023-06-14T10:17:58;102153.97;;;25.41;32.60
75767;BME280;64378;55.596;13.014;2023-06-14T10:20:29;102154.78;;;25.42;32.82
75767;BME280;64378;55.596;13.014;2023-06-14T10:22:58;102156.72;;;25.41;32.66
75767;BME280;64378;55.596;13.014;2023-06-14T10:25:30;102153.97;;;25.41;32.64
75767;BME280;64378;55.596;13.014;2023-06-14T10:28:29;102144.25;;;25.39;32.74
75767;BME280;64378;55.596;13.014;2023-06-14T10:31:01;102151.44;;;25.40;32.90
75767;BME280;64378;55.596;13.014;2023-06-14T10:33:27;102144.25;;;25.39;32.63
75767;BME280;64378;55.596;13.014;2023-06-14T10:36:06;102147.88;;;25.39;32.85
75767;BME280;64378;55.596;13.014;2023-06-14T10:38:31;102148.97;;;25.38;32.91
75767;BME280;64378;55.596;13.014;2023-06-14T10:40:58;102140.69;;;25.38;32.74
75767;BME280;64378;55.596;13.014;2023-06-14T10:43:24;102148.97;;;25.38;32.82
75767;BME280;64378;55.596;13.014;2023-06-14T10:46:11;102143.44;;;25.38;32.82
75767;BME280;64378;55.596;13.014;2023-06-14T10:48:40;102145.34;;;25.38;32.44
75767;BME280;64378;55.596;13.014;2023-06-14T10:51:05;102142.59;;;25.38;32.63
75767;BME280;64378;55.596;13.014;2023-06-14T10:53:40;102141.78;;;25.37;32.87
75767;BME280;64378;55.596;13.014;2023-06-14T10:56:08;102136.25;;;25.37;32.78
75767;BME280;64378;55.596;13.014;2023-06-14T10:58:33;102127.13;;;25.37;32.82
75767;BME280;64378;55.596;13.014;2023-06-14T11:00:59;102133.50;;;25.37;32.81
75767;BME280;64378;55.596;13.014;2023-06-14T11:03:43;102129.06;;;25.36;32.86
75767;BME280;64378;55.596;13.014;2023-06-14T11:06:15;102130.16;;;25.35;32.54
75767;BME280;64378;55.596;13.014;2023-06-14T11:11:09;102120.78;;;25.36;32.85
75767;BME280;64378;55.596;13.014;2023-06-14T11:13:36;102120.78;;;25.36;32.73
75767;BME280;64378;55.596;13.014;2023-06-14T11:16:02;102118.00;;;25.36;32.90
75767;BME280;64378;55.596;13.014;2023-06-14T11:18:34;102119.91;;;25.36;32.90
75767;BME280;64378;55.596;13.014;2023-06-14T11:21:01;102119.91;;;25.36;32.90
75767;BME280;64378;55.596;13.014;2023-06-14T11:23:26;102126.28;;;25.36;32.86
75767;BME280;64378;55.596;13.014;2023-06-14T11:25:52;102116.34;;;25.35;32.76
75767;BME280;64378;55.596;13.014;2023-06-14T11:28:17;102113.56;;;25.35;32.76
75767;BME280;64378;55.596;13.014;2023-06-14T11:30:44;102110.81;;;25.35;32.55
75767;BME280;64378;55.596;13.014;2023-06-14T11:33:10;102121.88;;;25.35;32.80
75767;BME280;64378;55.596;13.014;2023-06-14T11:35:38;102110.00;;;25.35;32.52
75767;BME280;64378;55.596;13.014;2023-06-14T11:38:04;102101.72;;;25.35;32.63
75767;BME280;64378;55.596;13.014;2023-06-14T11:40:29;102102.81;;;25.34;32.71
75767;BME280;64378;55.596;13.014;2023-06-14T11:42:57;102102.81;;;25.34;32.70
75767;BME280;64378;55.596;13.014;2023-06-14T11:45:23;102099.75;;;25.35;32.71
75767;BME280;64378;55.596;13.014;2023-06-14T11:47:49;102094.22;;;25.35;32.69
75767;BME280;64378;55.596;13.014;2023-06-14T11:50:15;102092.56;;;25.34;32.53
75767;BME280;64378;55.596;13.014;2023-06-14T11:52:40;102090.91;;;25.33;32.53
75767;BME280;64378;55.596;13.014;2023-06-14T11:55:06;102089.00;;;25.34;32.45
75767;BME280;64378;55.596;13.014;2023-06-14T11:57:34;102089.00;;;25.34;32.81
75767;BME280;64378;55.596;13.014;2023-06-14T12:00:04;102100.84;;;25.34;32.69
75767;BME280;64378;55.596;13.014;2023-06-14T12:02:40;102099.19;;;25.33;32.79
75767;BME280;64378;55.596;13.014;2023-06-14T12:05:05;102095.34;;;25.34;32.82
75767;BME280;64378;55.596;13.014;2023-06-14T12:07:37;102090.91;;;25.33;32.71
75767;BME280;64378;55.596;13.014;2023-06-14T12:12:28;102087.03;;;25.34;32.47
75767;BME280;64378;55.596;13.014;2023-06-14T12:14:54;102091.75;;;25.34;32.40
75767;BME280;64378;55.596;13.014;2023-06-14T12:17:21;102083.47;;;25.34;32.39
75767;BME280;64378;55.596;13.014;2023-06-14T12:19:46;102083.47;;;25.34;32.39
75767;BME280;64378;55.596;13.014;2023-06-14T12:22:13;102083.47;;;25.34;32.42
75767;BME280;64378;55.596;13.014;2023-06-14T12:24:38;102087.88;;;25.35;32.67
75767;BME280;64378;55.596;13.014;2023-06-14T12:27:04;102074.31;;;25.33;32.70
75767;BME280;64378;55.596;13.014;2023-06-14T12:29:30;102072.41;;;25.34;32.58
75767;BME280;64378;55.596;13.014;2023-06-14T12:31:56;102066.03;;;25.33;32.42
75767;BME280;64378;55.596;13.014;2023-06-14T12:34:24;102074.06;;;25.35;32.67
75767;BME280;64378;55.596;13.014;2023-06-14T12:36:51;102074.31;;;25.33;32.40
75767;BME280;64378;55.596;13.014;2023-06-14T12:39:18;102074.06;;;25.35;32.72
75767;BME280;64378;55.596;13.014;2023-06-14T12:41:43;102075.19;;;25.34;32.78
75767;BME280;64378;55.596;13.014;2023-06-14T12:44:09;102066.88;;;25.34;32.62
75767;BME280;64378;55.596;13.014;2023-06-14T12:46:35;102062.47;;;25.33;32.46
75767;BME280;64378;55.596;13.014;2023-06-14T12:49:01;102070.75;;;25.33;32.75
75767;BME280;64378;55.596;13.014;2023-06-14T12:51:27;102069.09;;;25.32;32.47